createdAt,value
2019-04-30T00:02:49.754Z,3.10
2019-04-30T00:07:55.056Z,2.92
2019-04-30T00:12:58.225Z,3.35
2019-04-30T00:18:01.931Z,2.90
2019-04-30T00:23:06.672Z,2.67
2019-04-30T00:28:09.998Z,2.67
2019-04-30T00:33:15.287Z,2.42
2019-04-30T00:38:18.378Z,2.75
2019-04-30T00:43:21.779Z,3.12
2019-04-30T00:48:29.662Z,2.62
2019-04-30T00:53:30.137Z,2.75
2019-04-30T00:58:33.445Z,2.52
2019-04-30T01:03:39.442Z,2.77
2019-04-30T01:08:43.418Z,2.77
2019-04-30T01:13:52.544Z,2.58
2019-04-30T01:18:51.760Z,2.47
2019-04-30T01:23:55.060Z,2.30
2019-04-30T01:29:01.862Z,2.40
2019-04-30T01:34:05.112Z,2.58
2019-04-30T01:39:09.466Z,2.72
2019-04-30T01:44:12.814Z,2.58
2019-04-30T01:49:16.119Z,2.30
2019-04-30T01:54:23.981Z,2.75
2019-04-30T01:59:26.081Z,2.37
2019-04-30T02:04:31.517Z,2.27
2019-04-30T02:09:34.478Z,3.20
2019-04-30T02:14:39.473Z,2.47
2019-04-30T02:19:54.072Z,2.52
2019-04-30T02:24:48.664Z,2.62
2019-04-30T02:29:52.030Z,2.00
2019-04-30T02:34:59.679Z,2.52
2019-04-30T02:40:02.127Z,2.70
2019-04-30T02:45:10.136Z,2.65
2019-04-30T02:50:18.300Z,2.20
2019-04-30T02:55:20.613Z,2.15
2019-04-30T03:00:24.001Z,2.10
2019-04-30T03:05:27.314Z,2.20
2019-04-30T03:10:30.618Z,2.50
2019-04-30T03:15:33.948Z,2.45
2019-04-30T03:20:41.648Z,2.30
2019-04-30T03:25:44.980Z,2.47
2019-04-30T03:30:56.201Z,2.30
2019-04-30T03:35:54.605Z,2.52
2019-04-30T03:41:00.255Z,2.22
2019-04-30T03:46:03.745Z,2.10
2019-04-30T03:51:07.070Z,2.80
2019-04-30T03:56:10.407Z,3.85
2019-04-30T04:01:19.640Z,2.90
2019-04-30T04:11:29.855Z,3.40
2019-04-30T04:16:33.246Z,3.05
2019-04-30T04:21:39.215Z,3.05
2019-04-30T04:26:43.957Z,3.10
2019-04-30T04:31:49.767Z,3.15
2019-04-30T04:36:51.716Z,2.85
2019-04-30T04:41:55.048Z,3.75
2019-04-30T04:47:00.190Z,3.72
2019-04-30T04:52:03.605Z,3.50
2019-04-30T04:57:14.898Z,3.40
2019-04-30T05:02:32.112Z,3.85
2019-04-30T05:07:33.596Z,3.62
2019-04-30T05:12:37.967Z,2.85
2019-04-30T05:17:42.015Z,3.08
2019-04-30T05:22:45.319Z,3.70
2019-04-30T05:27:48.931Z,3.20
2019-04-30T05:32:52.329Z,2.92
2019-04-30T05:37:55.633Z,3.00
2019-04-30T05:43:00.395Z,2.98
2019-04-30T05:48:03.806Z,3.20
2019-04-30T05:53:08.910Z,3.30
2019-04-30T05:58:12.357Z,2.62
2019-04-30T06:03:25.127Z,2.98
2019-04-30T06:08:22.402Z,2.70
2019-04-30T06:13:32.018Z,2.92
2019-04-30T06:18:35.395Z,2.67
2019-04-30T06:23:39.381Z,2.55
2019-04-30T06:28:42.678Z,2.72
2019-04-30T06:33:45.983Z,2.27
2019-04-30T06:38:49.288Z,3.00
2019-04-30T06:43:52.787Z,2.55
2019-04-30T06:48:56.090Z,2.75
2019-04-30T06:53:59.384Z,2.70
2019-04-30T06:59:02.691Z,3.00
2019-04-30T07:04:05.981Z,3.00
2019-04-30T07:09:10.916Z,2.87
2019-04-30T07:14:26.209Z,2.67
2019-04-30T07:19:34.690Z,2.60
2019-04-30T07:24:34.610Z,2.62
2019-04-30T07:29:39.307Z,3.40
2019-04-30T07:34:42.702Z,3.00
2019-04-30T07:39:46.013Z,2.72
2019-04-30T07:44:50.225Z,2.95
2019-04-30T07:49:55.958Z,2.62
2019-04-30T07:55:00.673Z,2.62
2019-04-30T08:00:04.902Z,2.87
2019-04-30T08:05:10.552Z,2.95
2019-04-30T08:10:14.019Z,2.47
2019-04-30T08:15:19.626Z,2.70
2019-04-30T08:20:22.423Z,2.80
2019-04-30T08:25:25.722Z,2.40
2019-04-30T08:30:29.989Z,2.17
2019-04-30T08:35:33.546Z,2.80
2019-04-30T08:40:36.870Z,2.58
2019-04-30T08:45:40.215Z,2.45
2019-04-30T08:50:43.560Z,3.00
2019-04-30T08:55:46.892Z,2.70
2019-04-30T09:00:50.234Z,2.25
2019-04-30T09:05:55.206Z,2.50
2019-04-30T09:10:59.524Z,2.50
2019-04-30T09:16:02.926Z,2.75
2019-04-30T09:21:06.597Z,2.42
2019-04-30T09:26:11.590Z,2.35
2019-04-30T09:31:14.931Z,2.45
2019-04-30T09:36:20.591Z,2.72
2019-04-30T09:41:23.321Z,2.62
2019-04-30T09:46:27.308Z,2.65
2019-04-30T09:51:32.119Z,2.58
2019-04-30T09:56:35.822Z,2.70
2019-04-30T10:01:39.137Z,2.12
2019-04-30T10:06:42.447Z,2.40
2019-04-30T10:11:49.847Z,2.77
2019-04-30T10:17:10.077Z,2.45
2019-04-30T10:22:13.703Z,2.30
2019-04-30T10:27:19.145Z,2.50
2019-04-30T10:32:22.144Z,2.30
2019-04-30T10:37:25.463Z,2.60
2019-04-30T10:42:28.976Z,2.30
2019-04-30T10:47:32.796Z,2.50
2019-04-30T10:52:36.172Z,2.22
2019-04-30T10:57:39.820Z,1.92
2019-04-30T11:02:43.215Z,2.40
2019-04-30T11:07:46.546Z,2.50
2019-04-30T11:12:49.882Z,2.72
2019-04-30T11:17:53.348Z,2.20
2019-04-30T11:22:57.036Z,2.60
2019-04-30T11:28:01.262Z,2.52
2019-04-30T11:33:05.149Z,2.47
2019-04-30T11:38:08.570Z,2.75
2019-04-30T11:43:11.914Z,2.62
2019-04-30T11:48:15.318Z,1.80
2019-04-30T11:53:25.251Z,2.17
2019-04-30T11:58:23.678Z,2.20
2019-04-30T12:03:30.092Z,2.12
2019-04-30T12:08:33.722Z,2.35
2019-04-30T12:13:37.041Z,2.10
2019-04-30T12:18:40.344Z,2.40
2019-04-30T12:23:43.655Z,2.10
2019-04-30T12:28:46.958Z,2.15
2019-04-30T12:33:50.261Z,2.22
2019-04-30T12:38:53.583Z,2.00
2019-04-30T12:43:56.948Z,2.17
2019-04-30T12:49:11.005Z,2.08
2019-04-30T12:54:18.853Z,2.05
2019-04-30T12:59:22.168Z,1.72
2019-04-30T13:04:25.514Z,2.20
2019-04-30T13:09:30.246Z,1.85
2019-04-30T13:14:39.421Z,2.30
2019-04-30T13:19:39.172Z,2.15
2019-04-30T13:24:42.570Z,1.70
2019-04-30T13:29:53.522Z,2.35
2019-04-30T13:35:00.643Z,2.50
2019-04-30T13:40:10.387Z,1.95
2019-04-30T13:45:13.863Z,2.20
2019-04-30T13:50:19.685Z,2.20
2019-04-30T13:55:22.334Z,2.52
2019-04-30T14:00:29.954Z,2.52
2019-04-30T14:05:33.417Z,2.50
2019-04-30T14:10:39.272Z,2.40
2019-04-30T14:15:42.843Z,2.50
2019-04-30T14:20:46.256Z,3.60
2019-04-30T14:25:56.309Z,2.85
2019-04-30T14:30:54.671Z,2.75
2019-04-30T14:36:00.593Z,3.25
2019-04-30T14:41:03.779Z,3.05
2019-04-30T14:46:21.466Z,3.12
2019-04-30T14:51:25.048Z,2.77
2019-04-30T14:56:39.405Z,2.70
2019-04-30T15:01:51.724Z,3.08
2019-04-30T15:06:55.106Z,2.50
2019-04-30T15:11:58.680Z,3.40
2019-04-30T15:17:01.996Z,3.25
2019-04-30T15:22:05.314Z,3.90
2019-04-30T15:27:09.269Z,3.05
2019-04-30T15:32:12.768Z,3.17
2019-04-30T15:37:21.665Z,3.72
2019-04-30T15:42:21.869Z,3.42
2019-04-30T15:47:25.283Z,3.37
2019-04-30T15:52:28.872Z,3.58
2019-04-30T15:57:32.215Z,3.72
2019-04-30T16:02:38.789Z,4.42
2019-04-30T16:07:43.851Z,4.00
2019-04-30T16:12:54.830Z,3.90
2019-04-30T16:17:59.820Z,3.75
2019-04-30T16:23:03.141Z,4.28
2019-04-30T16:28:08.524Z,4.67
2019-04-30T16:33:12.071Z,3.98
2019-04-30T16:38:15.374Z,4.58
2019-04-30T16:43:20.373Z,4.60
2019-04-30T16:48:23.773Z,4.00
2019-04-30T16:53:27.102Z,4.62
2019-04-30T16:58:32.055Z,4.58
2019-04-30T17:03:38.834Z,5.05
2019-04-30T17:08:43.854Z,5.03
2019-04-30T17:13:48.781Z,4.97
2019-04-30T17:18:52.078Z,5.50
2019-04-30T17:23:55.423Z,5.40
2019-04-30T17:28:59.825Z,5.80
2019-04-30T17:34:03.343Z,6.03
2019-04-30T17:39:11.012Z,5.37
2019-04-30T17:44:14.334Z,5.33
2019-04-30T17:49:18.946Z,5.42
2019-04-30T17:54:22.418Z,5.53
2019-04-30T17:59:25.755Z,4.65
2019-04-30T18:04:29.734Z,5.62
2019-04-30T18:09:33.150Z,5.12
2019-04-30T18:14:36.500Z,5.00
2019-04-30T18:19:57.906Z,5.17
2019-04-30T18:25:02.885Z,5.40
2019-04-30T18:30:08.283Z,5.17
2019-04-30T18:35:11.677Z,5.12
2019-04-30T18:40:15.167Z,5.00
2019-04-30T18:45:19.441Z,5.35
2019-04-30T18:50:23.015Z,4.97
2019-04-30T18:55:26.461Z,5.33
2019-04-30T19:00:39.396Z,4.80
2019-04-30T19:05:43.843Z,5.35
2019-04-30T19:10:58.903Z,5.47
2019-04-30T19:16:19.685Z,4.97
2019-04-30T19:21:12.037Z,6.15
2019-04-30T19:26:15.355Z,6.10
2019-04-30T19:31:19.922Z,6.90
2019-04-30T19:36:34.956Z,7.33
2019-04-30T19:41:28.796Z,7.00
2019-04-30T19:46:33.346Z,7.47
2019-04-30T19:51:36.695Z,7.67
2019-04-30T19:56:40.035Z,7.15
2019-04-30T20:01:43.373Z,7.72
2019-04-30T20:06:48.602Z,8.30
2019-04-30T20:11:51.768Z,7.37
2019-04-30T20:16:55.083Z,7.12
2019-04-30T20:21:59.513Z,7.37
2019-04-30T20:27:07.001Z,7.92
2019-04-30T20:32:08.654Z,8.90
2019-04-30T20:37:12.063Z,9.10
2019-04-30T20:42:15.403Z,9.60
2019-04-30T20:47:21.050Z,11.28
2019-04-30T20:52:23.744Z,10.28
2019-04-30T20:57:27.067Z,11.00
2019-04-30T21:02:30.389Z,11.78
2019-04-30T21:07:33.699Z,12.05
2019-04-30T21:12:37.024Z,10.78
2019-04-30T21:17:40.332Z,12.05
2019-04-30T21:22:43.645Z,12.43
2019-04-30T21:27:46.974Z,11.63
2019-04-30T21:32:51.921Z,13.80
2019-04-30T21:37:56.881Z,13.22
2019-04-30T21:43:00.203Z,13.22
2019-04-30T21:48:03.505Z,13.28
2019-04-30T21:53:06.835Z,12.95
2019-04-30T21:58:10.139Z,11.70
2019-04-30T22:03:13.555Z,11.90
2019-04-30T22:08:18.807Z,12.45
2019-04-30T22:13:21.991Z,11.78
2019-04-30T22:18:25.312Z,12.00
2019-04-30T22:23:28.705Z,12.73
2019-04-30T22:28:32.030Z,11.55
2019-04-30T22:33:35.421Z,11.60
2019-04-30T22:38:42.833Z,11.25
2019-04-30T22:43:46.226Z,11.93
2019-04-30T22:48:49.547Z,11.12
2019-04-30T22:53:52.873Z,11.78
2019-04-30T22:58:56.202Z,12.13
2019-04-30T23:04:01.175Z,11.43
2019-04-30T23:09:05.453Z,11.60
2019-04-30T23:14:08.792Z,10.15
2019-04-30T23:19:12.137Z,10.58
2019-04-30T23:24:15.492Z,10.95
2019-04-30T23:29:18.807Z,10.98
2019-04-30T23:34:22.202Z,10.40
2019-04-30T23:39:25.548Z,10.75
2019-04-30T23:44:28.891Z,9.25
2019-04-30T23:49:32.233Z,9.60
2019-04-30T23:54:35.576Z,9.80
2019-04-30T23:59:38.920Z,10.05
